createdAt,value
2023-03-31T00:00:38.362Z,12.16
2023-03-31T00:01:44.582Z,12.23
2023-03-31T00:02:50.564Z,12.21
2023-03-31T00:04:16.383Z,12.23
2023-03-31T00:05:24.908Z,12.25
2023-03-31T00:06:44.544Z,12.24
2023-03-31T00:07:48.755Z,12.26
2023-03-31T00:08:54.046Z,12.28
2023-03-31T00:10:07.081Z,12.25
2023-03-31T00:11:22.760Z,12.27
2023-03-31T00:12:26.906Z,12.30
2023-03-31T00:13:31.852Z,12.30
2023-03-31T00:14:35.879Z,12.29
2023-03-31T00:15:40.021Z,12.27
2023-03-31T00:16:45.495Z,12.30
2023-03-31T00:17:49.578Z,12.30
2023-03-31T00:18:53.539Z,12.33
2023-03-31T00:20:00.517Z,12.30
2023-03-31T00:21:25.613Z,12.32
2023-03-31T00:22:30.258Z,12.34
2023-03-31T00:23:34.452Z,12.36
2023-03-31T00:24:38.601Z,12.38
2023-03-31T00:25:45.046Z,12.38
2023-03-31T00:26:51.720Z,12.37
2023-03-31T00:27:56.214Z,12.30
2023-03-31T00:29:00.588Z,12.30
2023-03-31T00:30:10.564Z,12.29
2023-03-31T00:31:18.653Z,12.33
2023-03-31T00:32:23.284Z,12.32
2023-03-31T00:33:27.796Z,12.30
2023-03-31T00:34:32.345Z,12.30
2023-03-31T00:35:39.363Z,12.31
2023-03-31T00:36:47.816Z,12.29
2023-03-31T00:37:51.747Z,12.31
2023-03-31T00:39:02.820Z,12.31
2023-03-31T00:40:11.048Z,12.29
2023-03-31T00:41:16.310Z,12.28
2023-03-31T00:42:21.373Z,12.30
2023-03-31T00:43:36.986Z,12.26
2023-03-31T00:45:19.129Z,12.28
2023-03-31T00:46:46.841Z,12.26
2023-03-31T00:48:19.640Z,12.25
2023-03-31T00:49:41.579Z,12.24
2023-03-31T00:50:55.431Z,12.25
2023-03-31T00:52:24.008Z,12.27
2023-03-31T00:53:34.406Z,12.22
2023-03-31T00:54:42.400Z,12.22
2023-03-31T00:55:55.622Z,12.22
2023-03-31T00:57:03.739Z,12.21
2023-03-31T00:58:14.635Z,12.20
2023-03-31T00:59:19.708Z,12.20
2023-03-31T01:00:24.365Z,12.17
2023-03-31T01:01:32.223Z,12.18
2023-03-31T01:02:41.566Z,12.17
2023-03-31T01:03:50.720Z,12.11
2023-03-31T01:05:02.556Z,12.11
2023-03-31T01:06:12.834Z,12.11
2023-03-31T01:07:36.971Z,12.09
2023-03-31T01:08:44.989Z,12.07
2023-03-31T01:09:50.503Z,12.07
2023-03-31T01:11:09.667Z,11.99
2023-03-31T01:12:19.983Z,12.02
2023-03-31T01:13:27.328Z,12.02
2023-03-31T01:14:41.201Z,11.99
2023-03-31T01:15:45.608Z,12.02
2023-03-31T01:16:49.528Z,12.01
2023-03-31T01:17:57.837Z,11.99
2023-03-31T01:19:06.761Z,11.99
2023-03-31T01:21:10.843Z,11.94
2023-03-31T01:23:07.233Z,11.93
2023-03-31T01:24:27.365Z,11.93
2023-03-31T01:25:53.316Z,11.88
2023-03-31T01:27:18.319Z,11.84
2023-03-31T01:29:08.992Z,11.84
2023-03-31T01:30:50.543Z,11.90
2023-03-31T01:32:41.048Z,11.87
2023-03-31T01:34:16.346Z,11.91
2023-03-31T01:35:44.736Z,11.83
2023-03-31T01:37:14.855Z,11.86
2023-03-31T01:38:55.332Z,11.85
2023-03-31T01:40:20.272Z,11.83
2023-03-31T01:42:15.209Z,11.84
2023-03-31T01:44:13.289Z,11.84
2023-03-31T01:45:39.968Z,11.89
2023-03-31T01:46:59.904Z,11.91
2023-03-31T01:48:47.489Z,11.89
2023-03-31T01:50:46.022Z,11.93
2023-03-31T01:52:34.466Z,11.88
2023-03-31T01:54:25.368Z,11.93
2023-03-31T01:55:39.415Z,11.92
2023-03-31T01:56:56.029Z,11.89
2023-03-31T01:59:03.505Z,11.88
2023-03-31T02:00:42.176Z,11.84
2023-03-31T02:02:06.106Z,11.81
2023-03-31T02:03:31.476Z,11.85
2023-03-31T02:04:51.249Z,11.83
2023-03-31T02:06:02.084Z,11.82
2023-03-31T02:07:32.142Z,11.82
2023-03-31T02:08:48.814Z,11.77
2023-03-31T02:10:10.087Z,11.78
2023-03-31T02:11:15.122Z,11.78
2023-03-31T02:12:28.200Z,11.82
2023-03-31T02:13:42.625Z,11.82
2023-03-31T02:14:57.352Z,11.82
2023-03-31T02:16:19.156Z,11.85
2023-03-31T02:17:34.156Z,11.85
2023-03-31T02:18:44.456Z,11.88
2023-03-31T02:19:54.378Z,11.91
2023-03-31T02:21:01.562Z,11.92
2023-03-31T02:22:10.026Z,11.92
2023-03-31T02:23:24.487Z,11.96
2023-03-31T02:24:32.210Z,11.96
2023-03-31T02:26:12.567Z,11.89
2023-03-31T02:27:51.526Z,11.87
2023-03-31T02:28:59.849Z,11.88
2023-03-31T02:30:16.823Z,11.90
2023-03-31T02:31:48.450Z,11.87
2023-03-31T02:32:52.502Z,11.87
2023-03-31T02:33:57.453Z,11.90
2023-03-31T02:35:02.388Z,11.90
2023-03-31T02:36:14.417Z,11.86
2023-03-31T02:37:18.801Z,11.84
2023-03-31T02:38:25.696Z,11.80
2023-03-31T02:39:39.687Z,11.77
2023-03-31T02:40:44.019Z,11.77
2023-03-31T02:41:48.514Z,11.81
2023-03-31T02:42:55.077Z,11.82
2023-03-31T02:44:00.007Z,11.84
2023-03-31T02:45:48.556Z,11.83
2023-03-31T02:46:55.098Z,11.87
2023-03-31T02:47:59.336Z,11.90
2023-03-31T02:49:08.341Z,11.86
2023-03-31T02:50:15.105Z,11.78
2023-03-31T02:52:03.598Z,11.83
2023-03-31T02:53:29.330Z,11.80
2023-03-31T02:55:03.733Z,11.85
2023-03-31T02:56:57.764Z,11.84
2023-03-31T02:58:34.698Z,11.86
2023-03-31T03:00:14.184Z,11.78
2023-03-31T03:01:39.907Z,11.75
2023-03-31T03:03:34.823Z,11.84
2023-03-31T03:05:13.306Z,11.85
2023-03-31T03:06:25.255Z,11.87
2023-03-31T03:10:00.319Z,11.86
2023-03-31T03:11:31.216Z,11.81
2023-03-31T03:13:02.485Z,11.79
2023-03-31T03:14:45.063Z,11.78
2023-03-31T03:17:30.583Z,11.73
2023-03-31T03:18:37.598Z,11.71
2023-03-31T03:19:54.144Z,11.70
2023-03-31T03:20:58.375Z,11.73
2023-03-31T03:22:26.556Z,11.74
2023-03-31T03:23:33.362Z,11.68
2023-03-31T03:24:37.633Z,11.71
2023-03-31T03:25:46.759Z,11.74
2023-03-31T03:26:52.184Z,11.68
2023-03-31T03:27:56.536Z,11.70
2023-03-31T03:29:00.475Z,11.74
2023-03-31T03:30:13.194Z,11.75
2023-03-31T03:31:17.589Z,11.73
2023-03-31T03:32:21.621Z,11.76
2023-03-31T03:33:31.504Z,11.78
2023-03-31T03:34:39.188Z,11.78
2023-03-31T03:35:44.005Z,11.73
2023-03-31T03:36:47.847Z,11.72
2023-03-31T03:37:52.096Z,11.75
2023-03-31T03:38:59.873Z,11.75
2023-03-31T03:40:09.016Z,11.75
2023-03-31T03:41:22.604Z,11.73
2023-03-31T03:42:34.983Z,11.77
2023-03-31T03:43:48.120Z,11.82
2023-03-31T03:44:55.709Z,11.80
2023-03-31T03:46:00.065Z,11.78
2023-03-31T03:47:10.516Z,11.74
2023-03-31T03:48:14.296Z,11.75
2023-03-31T03:49:18.744Z,11.78
2023-03-31T03:50:22.503Z,11.78
2023-03-31T03:51:53.667Z,11.83
2023-03-31T03:52:57.277Z,11.81
2023-03-31T03:54:06.992Z,11.71
2023-03-31T03:55:27.655Z,11.74
2023-03-31T03:56:38.004Z,11.74
2023-03-31T03:59:02.668Z,11.73
2023-03-31T04:00:12.712Z,11.76
2023-03-31T04:01:17.030Z,11.74
2023-03-31T04:02:26.889Z,11.79
2023-03-31T04:03:32.356Z,11.73
2023-03-31T04:04:36.464Z,11.76
2023-03-31T04:05:40.703Z,11.71
2023-03-31T04:06:51.370Z,11.70
2023-03-31T04:07:58.634Z,11.69
2023-03-31T04:09:03.943Z,11.69
2023-03-31T04:10:15.230Z,11.68
2023-03-31T04:11:19.950Z,11.67
2023-03-31T04:12:41.465Z,11.70
2023-03-31T04:13:50.718Z,11.68
2023-03-31T04:15:10.837Z,11.68
2023-03-31T04:16:20.536Z,11.69
2023-03-31T04:17:34.289Z,11.70
2023-03-31T04:18:53.997Z,11.66
2023-03-31T04:20:10.276Z,11.74
2023-03-31T04:21:36.229Z,11.72
2023-03-31T04:22:50.854Z,11.77
2023-03-31T04:24:00.138Z,11.70
2023-03-31T04:25:20.022Z,11.74
2023-03-31T04:26:33.692Z,11.75
2023-03-31T04:27:57.917Z,11.75
2023-03-31T04:29:04.164Z,11.74
2023-03-31T04:30:23.250Z,11.73
2023-03-31T04:31:36.413Z,11.71
2023-03-31T04:32:44.765Z,11.73
2023-03-31T04:33:54.143Z,11.72
2023-03-31T04:35:03.002Z,11.73
2023-03-31T04:36:19.999Z,11.72
2023-03-31T04:37:28.379Z,11.75
2023-03-31T04:38:34.097Z,11.72
2023-03-31T04:39:37.963Z,11.75
2023-03-31T04:40:58.233Z,11.75
2023-03-31T04:42:02.377Z,11.74
2023-03-31T04:43:08.430Z,11.77
2023-03-31T04:44:15.041Z,11.76
2023-03-31T04:45:19.179Z,11.73
2023-03-31T04:46:23.420Z,11.75
2023-03-31T04:47:27.450Z,11.74
2023-03-31T04:48:31.213Z,11.74
2023-03-31T04:49:49.326Z,11.75
2023-03-31T04:51:06.760Z,11.74
2023-03-31T04:52:15.097Z,11.75
2023-03-31T04:53:28.136Z,11.68
2023-03-31T04:54:31.888Z,11.60
2023-03-31T04:55:36.532Z,11.60
2023-03-31T04:56:40.422Z,11.64
2023-03-31T04:57:44.139Z,11.69
2023-03-31T04:58:47.696Z,11.68
2023-03-31T04:59:51.657Z,11.72
2023-03-31T05:00:55.334Z,11.69
2023-03-31T05:02:04.099Z,11.71
2023-03-31T05:03:09.535Z,11.73
2023-03-31T05:04:27.197Z,11.75
2023-03-31T05:05:31.162Z,11.71
2023-03-31T05:06:40.209Z,11.73
2023-03-31T05:07:56.569Z,11.74
2023-03-31T05:09:00.767Z,11.72
2023-03-31T05:10:14.795Z,11.74
2023-03-31T05:11:19.450Z,11.78
2023-03-31T05:12:24.981Z,11.76
2023-03-31T05:13:28.822Z,11.75
2023-03-31T05:14:32.718Z,11.79
2023-03-31T05:15:39.748Z,11.75
2023-03-31T05:16:43.639Z,11.74
2023-03-31T05:17:47.916Z,11.76
2023-03-31T05:18:51.888Z,11.80
2023-03-31T05:19:55.593Z,11.84
2023-03-31T05:21:20.071Z,11.89
2023-03-31T05:22:23.969Z,11.91
2023-03-31T05:23:28.067Z,11.86
2023-03-31T05:24:32.070Z,11.90
2023-03-31T05:25:36.599Z,11.92
2023-03-31T05:26:47.911Z,11.89
2023-03-31T05:27:52.323Z,11.86
2023-03-31T05:28:57.020Z,11.91
2023-03-31T05:30:01.072Z,11.89
2023-03-31T05:31:07.514Z,11.89
2023-03-31T05:32:11.767Z,11.85
2023-03-31T05:33:16.058Z,11.90
2023-03-31T05:34:23.974Z,11.85
2023-03-31T05:35:28.160Z,11.77
2023-03-31T05:36:32.478Z,11.81
2023-03-31T05:37:38.605Z,11.80
2023-03-31T05:38:43.941Z,11.84
2023-03-31T05:39:47.895Z,11.82
2023-03-31T05:40:51.865Z,11.87
2023-03-31T05:41:56.152Z,11.92
2023-03-31T05:42:59.878Z,11.95
2023-03-31T05:44:03.665Z,11.97
2023-03-31T05:45:09.449Z,11.99
2023-03-31T05:46:14.142Z,12.02
2023-03-31T05:47:18.780Z,12.07
2023-03-31T05:48:22.780Z,12.07
2023-03-31T05:49:27.299Z,12.13
2023-03-31T05:50:31.024Z,12.14
2023-03-31T05:51:37.882Z,12.19
2023-03-31T05:52:41.589Z,12.21
2023-03-31T05:53:46.067Z,12.21
2023-03-31T05:54:50.038Z,12.26
2023-03-31T05:56:02.394Z,12.29
2023-03-31T05:57:06.058Z,12.32
2023-03-31T05:58:10.061Z,12.39
2023-03-31T05:59:15.158Z,12.49
2023-03-31T06:00:19.776Z,12.57
2023-03-31T06:01:25.206Z,12.65
2023-03-31T06:02:29.213Z,12.75
2023-03-31T06:03:39.496Z,12.83
2023-03-31T06:04:44.297Z,12.93
2023-03-31T06:05:49.415Z,13.08
2023-03-31T06:06:54.523Z,13.32
2023-03-31T06:07:58.416Z,13.52
2023-03-31T06:09:02.189Z,13.74
2023-03-31T06:10:08.634Z,14.03
2023-03-31T06:11:28.644Z,14.33
2023-03-31T06:12:33.594Z,14.61
2023-03-31T06:13:38.673Z,14.82
2023-03-31T06:14:45.900Z,15.13
2023-03-31T06:15:58.594Z,15.52
2023-03-31T06:17:02.699Z,15.81
2023-03-31T06:18:10.830Z,15.93
2023-03-31T06:19:15.352Z,16.32
2023-03-31T06:20:27.733Z,16.60
2023-03-31T06:21:32.517Z,16.89
2023-03-31T06:22:36.610Z,17.04
2023-03-31T06:23:41.193Z,17.29
2023-03-31T06:24:48.548Z,17.56
2023-03-31T06:26:03.779Z,17.71
2023-03-31T06:27:07.612Z,18.11
2023-03-31T06:28:12.416Z,18.20
2023-03-31T06:29:17.372Z,18.24
2023-03-31T06:30:21.809Z,18.48
2023-03-31T06:31:26.068Z,18.60
2023-03-31T06:32:29.956Z,18.84
2023-03-31T06:33:36.222Z,18.94
2023-03-31T06:34:40.189Z,19.17
2023-03-31T06:35:44.464Z,19.50
2023-03-31T06:36:48.533Z,19.67
2023-03-31T06:37:52.817Z,19.92
2023-03-31T06:38:57.144Z,20.14
2023-03-31T06:40:01.112Z,20.41
2023-03-31T06:41:06.984Z,20.32
2023-03-31T06:42:11.675Z,20.61
2023-03-31T06:43:22.060Z,20.67
2023-03-31T06:44:36.954Z,20.92
2023-03-31T06:45:43.985Z,21.09
2023-03-31T06:46:48.474Z,21.37
2023-03-31T06:47:53.163Z,21.51
2023-03-31T06:48:57.508Z,21.95
2023-03-31T06:50:18.517Z,22.29
2023-03-31T06:51:51.065Z,22.45
2023-03-31T06:52:59.967Z,22.71
2023-03-31T06:54:14.926Z,22.78
2023-03-31T06:55:30.352Z,22.78
2023-03-31T06:56:42.518Z,23.05
2023-03-31T06:57:50.029Z,23.47
2023-03-31T06:59:02.642Z,23.78
2023-03-31T07:00:13.652Z,24.01
2023-03-31T07:01:22.183Z,24.14
2023-03-31T07:02:30.530Z,24.43
2023-03-31T07:03:34.753Z,24.07
2023-03-31T07:05:00.763Z,24.49
2023-03-31T07:06:04.976Z,24.59
2023-03-31T07:07:21.310Z,24.72
2023-03-31T07:08:31.450Z,24.75
2023-03-31T07:09:47.149Z,24.72
2023-03-31T07:10:58.304Z,24.75
2023-03-31T07:12:05.373Z,25.06
2023-03-31T07:13:12.798Z,24.92
2023-03-31T07:14:37.834Z,25.08
2023-03-31T07:15:55.305Z,25.69
2023-03-31T07:16:59.971Z,25.69
2023-03-31T07:18:12.159Z,25.92
2023-03-31T07:19:19.392Z,26.09
2023-03-31T07:20:23.638Z,26.28
2023-03-31T07:21:32.983Z,26.72
2023-03-31T07:22:38.178Z,26.78
2023-03-31T07:23:42.300Z,26.88
2023-03-31T07:24:46.280Z,27.17
2023-03-31T07:25:53.027Z,27.24
2023-03-31T07:26:57.271Z,27.35
2023-03-31T07:28:06.684Z,26.94
2023-03-31T07:29:11.033Z,27.43
2023-03-31T07:30:21.234Z,27.72
2023-03-31T07:31:26.239Z,27.77
2023-03-31T07:32:30.755Z,27.66
2023-03-31T07:33:35.641Z,27.55
2023-03-31T07:34:41.735Z,27.73
2023-03-31T07:35:48.219Z,27.81
2023-03-31T07:36:58.692Z,28.16
2023-03-31T07:38:02.564Z,28.16
2023-03-31T07:39:08.054Z,28.08
2023-03-31T07:40:19.561Z,28.22
2023-03-31T07:41:24.157Z,28.32
2023-03-31T07:42:28.460Z,28.53
2023-03-31T07:43:32.730Z,28.39
2023-03-31T07:44:37.748Z,28.16
2023-03-31T07:45:41.645Z,28.11
2023-03-31T07:46:45.825Z,28.29
2023-03-31T07:47:50.343Z,28.28
2023-03-31T07:48:57.175Z,28.59
2023-03-31T07:50:04.951Z,28.30
2023-03-31T07:51:09.333Z,28.03
2023-03-31T07:52:13.462Z,28.61
2023-03-31T07:53:17.721Z,28.67
2023-03-31T07:54:21.698Z,29.10
2023-03-31T07:55:26.944Z,28.50
2023-03-31T07:56:31.241Z,28.47
2023-03-31T07:57:36.466Z,28.87
2023-03-31T07:58:40.192Z,28.82
2023-03-31T07:59:44.173Z,29.08
2023-03-31T08:00:47.954Z,28.67
2023-03-31T08:01:55.588Z,28.82
2023-03-31T08:03:00.040Z,29.06
2023-03-31T08:04:16.182Z,29.45
2023-03-31T08:05:26.062Z,29.67
2023-03-31T08:06:30.613Z,30.09
2023-03-31T08:07:41.220Z,30.85
2023-03-31T08:08:46.380Z,30.80
2023-03-31T08:09:50.160Z,31.00
2023-03-31T08:10:54.425Z,30.96
2023-03-31T08:11:58.342Z,31.08
2023-03-31T08:13:02.335Z,31.18
2023-03-31T08:14:06.031Z,31.66
2023-03-31T08:15:11.082Z,31.03
2023-03-31T08:16:16.113Z,31.49
2023-03-31T08:17:20.011Z,31.51
2023-03-31T08:18:24.054Z,31.94
2023-03-31T08:19:28.192Z,31.84
2023-03-31T08:20:32.827Z,31.77
2023-03-31T08:21:36.633Z,31.86
2023-03-31T08:22:49.325Z,31.99
2023-03-31T08:23:56.155Z,31.80
2023-03-31T08:25:00.481Z,31.89
2023-03-31T08:26:16.440Z,31.93
2023-03-31T08:27:22.054Z,32.14
2023-03-31T08:28:29.029Z,32.44
2023-03-31T08:29:32.918Z,32.77
2023-03-31T08:30:38.875Z,32.75
2023-03-31T08:31:42.857Z,32.83
2023-03-31T08:32:47.458Z,32.36
2023-03-31T08:33:52.342Z,32.48
2023-03-31T08:34:56.488Z,32.85
2023-03-31T08:36:10.828Z,32.83
2023-03-31T08:37:15.140Z,33.15
2023-03-31T08:38:21.811Z,33.34
2023-03-31T08:39:25.746Z,32.94
2023-03-31T08:40:32.928Z,32.49
2023-03-31T08:42:08.853Z,31.48
2023-03-31T08:43:30.752Z,30.98
2023-03-31T08:45:10.785Z,30.54
2023-03-31T08:46:19.185Z,30.14
2023-03-31T08:47:39.907Z,29.57
2023-03-31T08:48:52.295Z,28.98
2023-03-31T08:50:05.549Z,28.79
2023-03-31T08:51:24.561Z,28.61
2023-03-31T08:52:52.923Z,28.23
2023-03-31T08:54:08.567Z,28.02
2023-03-31T08:55:28.446Z,27.54
2023-03-31T08:56:39.366Z,27.22
2023-03-31T08:58:22.206Z,26.80
2023-03-31T08:59:34.754Z,26.56
2023-03-31T09:00:57.197Z,26.59
2023-03-31T09:02:39.203Z,26.75
2023-03-31T09:04:08.276Z,26.88
2023-03-31T09:05:19.876Z,26.78
2023-03-31T09:06:50.456Z,26.48
2023-03-31T09:08:09.550Z,25.73
2023-03-31T09:09:31.759Z,25.19
2023-03-31T09:10:56.812Z,24.37
2023-03-31T09:12:28.041Z,23.95
2023-03-31T09:14:18.267Z,23.17
2023-03-31T09:15:53.814Z,22.46
2023-03-31T09:17:31.814Z,21.85
2023-03-31T09:18:38.843Z,21.38
2023-03-31T09:19:52.983Z,20.95
2023-03-31T09:21:12.880Z,20.62
2023-03-31T09:22:26.189Z,20.18
2023-03-31T09:23:52.009Z,19.94
2023-03-31T09:25:27.321Z,19.88
2023-03-31T09:26:59.041Z,19.90
2023-03-31T09:28:14.998Z,19.69
2023-03-31T09:29:49.815Z,19.51
2023-03-31T09:30:56.941Z,19.42
2023-03-31T09:32:21.103Z,19.34
2023-03-31T09:33:34.660Z,19.27
2023-03-31T09:34:39.095Z,19.20
2023-03-31T09:35:45.858Z,19.22
2023-03-31T09:36:50.938Z,19.24
2023-03-31T09:37:55.450Z,19.14
2023-03-31T09:39:32.200Z,19.18
2023-03-31T09:40:36.203Z,19.19
2023-03-31T09:41:47.024Z,19.26
2023-03-31T09:43:18.850Z,19.43
2023-03-31T09:44:28.775Z,19.54
2023-03-31T09:45:35.904Z,19.64
2023-03-31T09:46:40.258Z,19.62
2023-03-31T09:47:54.586Z,19.61
2023-03-31T09:49:12.776Z,19.57
2023-03-31T09:50:18.225Z,19.52
2023-03-31T09:51:33.140Z,19.55
2023-03-31T09:53:00.013Z,19.32
2023-03-31T09:54:22.322Z,19.23
2023-03-31T09:55:40.046Z,19.16
2023-03-31T09:56:54.104Z,19.19
2023-03-31T09:58:04.335Z,19.14
2023-03-31T09:59:22.887Z,19.12
2023-03-31T10:00:28.250Z,19.17
2023-03-31T10:01:32.633Z,19.16
2023-03-31T10:02:40.878Z,19.11
2023-03-31T10:04:05.124Z,19.15
2023-03-31T10:05:31.473Z,19.17
2023-03-31T10:06:43.070Z,19.23
2023-03-31T10:07:47.156Z,19.29
2023-03-31T10:09:02.891Z,19.27
2023-03-31T10:10:32.931Z,19.27
2023-03-31T10:11:38.267Z,19.28
2023-03-31T10:12:51.149Z,19.20
2023-03-31T10:14:16.156Z,19.17
2023-03-31T10:15:26.781Z,19.16
2023-03-31T10:16:34.564Z,19.14
2023-03-31T10:17:55.115Z,19.04
2023-03-31T10:19:27.812Z,19.04
2023-03-31T10:20:38.911Z,18.99
2023-03-31T10:21:49.592Z,18.98
2023-03-31T10:22:53.709Z,18.90
2023-03-31T10:24:02.050Z,18.92
2023-03-31T10:25:34.554Z,18.90
2023-03-31T10:26:41.000Z,18.95
2023-03-31T10:27:55.089Z,19.04
2023-03-31T10:28:59.524Z,18.91
2023-03-31T10:30:17.782Z,18.97
2023-03-31T10:31:37.252Z,18.87
2023-03-31T10:32:46.297Z,18.87
2023-03-31T10:33:52.873Z,18.79
2023-03-31T10:35:13.398Z,18.77
2023-03-31T10:36:31.936Z,18.74
2023-03-31T10:37:37.918Z,18.74
2023-03-31T10:38:47.649Z,18.76
2023-03-31T10:40:15.723Z,18.70
2023-03-31T10:41:25.056Z,18.75
2023-03-31T10:42:29.825Z,18.78
2023-03-31T10:44:01.338Z,18.80
2023-03-31T10:45:37.222Z,18.64
2023-03-31T10:46:49.702Z,18.54
2023-03-31T10:47:58.427Z,18.56
2023-03-31T10:49:38.556Z,18.60
2023-03-31T10:50:44.346Z,18.62
2023-03-31T10:51:55.745Z,18.68
2023-03-31T10:53:17.915Z,18.75
2023-03-31T10:54:29.723Z,18.85
2023-03-31T10:55:57.091Z,18.91
2023-03-31T10:57:06.365Z,18.87
2023-03-31T10:59:06.651Z,18.79
2023-03-31T11:00:59.791Z,18.74
2023-03-31T11:02:43.227Z,18.74
2023-03-31T11:03:53.237Z,18.70
2023-03-31T11:05:36.311Z,18.71
2023-03-31T11:07:05.793Z,18.68
2023-03-31T11:08:47.529Z,18.58
2023-03-31T11:10:09.093Z,18.50
2023-03-31T11:11:29.317Z,18.55
2023-03-31T11:14:56.895Z,18.56
2023-03-31T11:16:39.922Z,18.63
2023-03-31T11:18:36.921Z,18.66
2023-03-31T11:20:07.092Z,18.68
2023-03-31T11:21:37.277Z,18.75
2023-03-31T11:22:48.568Z,18.73
2023-03-31T11:24:12.514Z,18.65
2023-03-31T11:25:53.787Z,18.58
2023-03-31T11:27:27.943Z,18.56
2023-03-31T11:29:21.045Z,18.49
2023-03-31T11:30:48.021Z,18.34
2023-03-31T11:32:06.535Z,18.33
2023-03-31T11:33:41.370Z,18.22
2023-03-31T11:35:51.183Z,18.04
2023-03-31T11:37:09.647Z,17.98
2023-03-31T11:38:45.058Z,17.94
2023-03-31T11:40:21.849Z,17.92
2023-03-31T11:41:47.832Z,17.87
2023-03-31T11:43:06.237Z,17.86
2023-03-31T11:44:17.133Z,17.88
2023-03-31T11:45:35.013Z,17.90
2023-03-31T11:47:03.584Z,17.84
2023-03-31T11:48:47.869Z,17.78
2023-03-31T11:50:23.088Z,17.70
2023-03-31T11:51:59.602Z,17.71
2023-03-31T11:53:19.143Z,17.74
2023-03-31T11:55:03.040Z,17.80
2023-03-31T11:56:14.805Z,17.84
2023-03-31T11:57:57.315Z,17.87
2023-03-31T11:59:04.570Z,17.81
2023-03-31T12:00:30.656Z,17.73
2023-03-31T12:01:49.643Z,17.72
2023-03-31T12:03:14.526Z,17.72
2023-03-31T12:04:44.329Z,17.74
2023-03-31T12:06:04.057Z,17.78
2023-03-31T12:07:31.321Z,17.89
2023-03-31T12:09:26.177Z,17.96
2023-03-31T12:10:49.528Z,17.99
2023-03-31T12:12:13.604Z,17.99
2023-03-31T12:13:59.124Z,18.00
2023-03-31T12:15:20.014Z,17.99
2023-03-31T12:16:46.558Z,18.04
2023-03-31T12:18:03.867Z,18.11
2023-03-31T12:19:55.892Z,18.09
2023-03-31T12:22:39.174Z,18.18
2023-03-31T12:23:46.254Z,18.23
2023-03-31T12:24:58.017Z,18.30
2023-03-31T12:26:48.457Z,18.40
2023-03-31T12:28:00.262Z,18.49
2023-03-31T12:29:28.310Z,18.53
2023-03-31T12:30:43.364Z,18.50
2023-03-31T12:31:49.197Z,18.60
2023-03-31T12:33:37.072Z,18.62
2023-03-31T12:35:20.100Z,18.59
2023-03-31T12:36:39.431Z,18.65
2023-03-31T12:38:19.542Z,18.71
2023-03-31T12:40:09.728Z,18.82
2023-03-31T12:41:29.662Z,18.79
2023-03-31T12:42:37.572Z,18.76
2023-03-31T12:44:22.610Z,18.70
2023-03-31T12:45:39.911Z,18.66
2023-03-31T12:47:33.941Z,18.53
2023-03-31T12:48:58.572Z,18.54
2023-03-31T12:50:42.357Z,18.54
2023-03-31T12:51:57.013Z,18.56
2023-03-31T12:53:14.134Z,18.56
2023-03-31T12:54:49.490Z,18.56
2023-03-31T12:55:58.472Z,18.61
2023-03-31T12:57:02.155Z,18.61
2023-03-31T12:58:32.759Z,18.66
2023-03-31T12:59:43.846Z,18.66
2023-03-31T13:01:14.875Z,18.72
2023-03-31T13:02:25.640Z,18.73
2023-03-31T13:03:45.782Z,18.76
2023-03-31T13:04:50.996Z,18.77
2023-03-31T13:05:54.675Z,18.78
2023-03-31T13:07:01.355Z,18.81
2023-03-31T13:08:11.608Z,18.88
2023-03-31T13:09:15.573Z,18.87
2023-03-31T13:10:32.068Z,18.93
2023-03-31T13:11:47.919Z,18.95
2023-03-31T13:13:17.770Z,18.98
2023-03-31T13:14:27.035Z,18.93
2023-03-31T13:15:33.029Z,18.94
2023-03-31T13:16:37.091Z,18.86
2023-03-31T13:17:41.802Z,18.82
2023-03-31T13:18:56.427Z,18.79
2023-03-31T13:20:40.992Z,18.70
2023-03-31T13:22:02.619Z,18.68
2023-03-31T13:23:20.279Z,18.66
2023-03-31T13:24:29.994Z,18.68
2023-03-31T13:25:45.579Z,18.70
2023-03-31T13:26:52.733Z,18.72
2023-03-31T13:28:20.174Z,18.78
2023-03-31T13:29:40.025Z,18.79
2023-03-31T13:30:49.710Z,18.81
2023-03-31T13:32:03.006Z,18.86
2023-03-31T13:33:34.532Z,18.84
2023-03-31T13:34:47.490Z,18.85
2023-03-31T13:36:19.590Z,18.86
2023-03-31T13:38:02.002Z,18.89
2023-03-31T13:39:20.260Z,18.94
2023-03-31T13:41:01.241Z,18.93
2023-03-31T13:42:58.756Z,18.91
2023-03-31T13:44:44.981Z,18.89
2023-03-31T13:46:10.938Z,18.85
2023-03-31T13:47:49.248Z,18.82
2023-03-31T13:49:38.659Z,18.73
2023-03-31T13:51:25.717Z,18.71
2023-03-31T13:53:01.845Z,18.68
2023-03-31T13:54:45.673Z,18.64
2023-03-31T13:56:16.753Z,18.54
2023-03-31T13:58:30.006Z,18.47
2023-03-31T14:00:02.606Z,18.46
2023-03-31T14:02:02.480Z,18.43
2023-03-31T14:03:31.807Z,18.35
2023-03-31T14:05:33.264Z,18.27
2023-03-31T14:07:17.026Z,18.20
2023-03-31T14:08:49.318Z,18.16
2023-03-31T14:09:54.298Z,18.15
2023-03-31T14:11:18.522Z,18.09
2023-03-31T14:12:35.636Z,18.06
2023-03-31T14:13:39.562Z,18.05
2023-03-31T14:14:43.448Z,18.06
2023-03-31T14:15:56.930Z,18.05
2023-03-31T14:17:13.790Z,18.02
2023-03-31T14:18:34.929Z,18.06
2023-03-31T14:19:57.365Z,18.07
2023-03-31T14:21:26.861Z,18.09
2023-03-31T14:22:43.693Z,18.10
2023-03-31T14:24:26.648Z,18.12
2023-03-31T14:26:02.655Z,18.15
2023-03-31T14:27:39.261Z,18.17
2023-03-31T14:29:07.194Z,18.21
2023-03-31T14:30:52.812Z,18.26
2023-03-31T14:32:32.387Z,18.27
2023-03-31T14:34:32.696Z,18.32
2023-03-31T14:35:53.391Z,18.33
2023-03-31T14:37:13.968Z,18.30
2023-03-31T14:38:21.972Z,18.28
2023-03-31T14:39:38.055Z,18.22
2023-03-31T14:42:22.446Z,18.09
2023-03-31T14:43:36.389Z,18.00
2023-03-31T14:44:43.062Z,17.95
2023-03-31T14:45:46.925Z,17.86
2023-03-31T14:46:52.103Z,17.76
2023-03-31T14:48:13.907Z,17.72
2023-03-31T14:49:35.002Z,17.70
2023-03-31T14:50:47.247Z,17.61
2023-03-31T14:51:54.399Z,17.58
2023-03-31T14:52:59.851Z,17.54
2023-03-31T14:55:57.294Z,17.37
2023-03-31T14:57:03.270Z,17.25
2023-03-31T14:58:14.156Z,17.21
2023-03-31T14:59:30.824Z,17.16
2023-03-31T15:00:40.448Z,17.15
2023-03-31T15:01:49.531Z,17.13
2023-03-31T15:02:54.951Z,17.06
2023-03-31T15:04:14.176Z,17.04
2023-03-31T15:05:40.633Z,16.98
2023-03-31T15:06:50.127Z,16.94
2023-03-31T15:08:04.146Z,16.94
2023-03-31T15:09:20.373Z,16.92
2023-03-31T15:10:24.858Z,16.87
2023-03-31T15:11:30.926Z,16.86
2023-03-31T15:12:41.653Z,16.85
2023-03-31T15:14:03.733Z,16.84
2023-03-31T15:15:12.613Z,16.76
2023-03-31T15:16:31.726Z,16.76
2023-03-31T15:17:42.472Z,16.77
2023-03-31T15:18:55.729Z,16.73
2023-03-31T15:20:50.900Z,16.76
2023-03-31T15:22:06.158Z,16.71
2023-03-31T15:23:28.534Z,16.65
2023-03-31T15:24:50.008Z,16.59
2023-03-31T15:26:09.558Z,16.61
2023-03-31T15:27:29.807Z,16.65
2023-03-31T15:28:57.094Z,16.68
2023-03-31T15:30:06.321Z,16.73
2023-03-31T15:31:11.280Z,16.73
2023-03-31T15:32:36.009Z,16.66
2023-03-31T15:33:43.880Z,16.67
2023-03-31T15:34:48.632Z,16.66
2023-03-31T15:35:55.966Z,16.60
2023-03-31T15:37:01.166Z,16.66
2023-03-31T15:38:20.128Z,16.71
2023-03-31T15:39:48.331Z,16.73
2023-03-31T15:41:02.344Z,16.62
2023-03-31T15:42:20.350Z,16.62
2023-03-31T15:43:50.830Z,16.64
2023-03-31T15:45:16.418Z,16.65
2023-03-31T15:47:02.284Z,16.63
2023-03-31T15:48:16.886Z,16.61
2023-03-31T15:49:27.302Z,16.59
2023-03-31T15:50:40.728Z,16.60
2023-03-31T15:51:53.408Z,16.58
2023-03-31T15:53:01.555Z,16.59
2023-03-31T15:54:41.195Z,16.57
2023-03-31T15:55:52.306Z,16.57
2023-03-31T15:57:25.479Z,16.55
2023-03-31T15:59:34.387Z,16.54
2023-03-31T16:01:09.373Z,16.50
2023-03-31T16:02:43.195Z,16.49
2023-03-31T16:03:55.320Z,16.44
2023-03-31T16:05:01.397Z,16.42
2023-03-31T16:06:44.532Z,16.43
2023-03-31T16:07:48.834Z,16.38
2023-03-31T16:09:13.928Z,16.38
2023-03-31T16:10:23.460Z,16.38
2023-03-31T16:11:47.088Z,16.37
2023-03-31T16:13:14.890Z,16.38
2023-03-31T16:14:44.756Z,16.42
2023-03-31T16:15:53.666Z,16.45
2023-03-31T16:17:13.100Z,16.49
2023-03-31T16:18:37.879Z,16.42
2023-03-31T16:19:56.425Z,16.45
2023-03-31T16:21:05.998Z,16.49
2023-03-31T16:22:24.433Z,16.51
2023-03-31T16:23:45.667Z,16.51
2023-03-31T16:24:51.064Z,16.51
2023-03-31T16:25:55.715Z,16.49
2023-03-31T16:27:10.446Z,16.46
2023-03-31T16:28:30.014Z,16.43
2023-03-31T16:29:37.496Z,16.44
2023-03-31T16:30:49.989Z,16.42
2023-03-31T16:32:20.861Z,16.35